Portada
METAR-TAF:

METAR-TAF

Aeroports :

Aeroport Internacional de Xangai-Pudong

Xangai-Pudong, Xina

latitud: 31-07N, longitud: 121-46E, altitud: 4 m

Observació

L'informe es va fer fa 32 minuts, a les 11:30 UTC
Vent 8 kt del Nord-Est
Temperatura 19°C
Humitat 68%
Pressió 1018 hPa
Visibilitat 10 km o més
sense núvols per sota de 1500 mi sense presència de cumulonimbus.

METAR: ZSPD 171130Z 04004MPS CAVOK 19/13 Q1018 NOSIG

Hora: 20:02 (12:02 UTC)

Pronòstic

L'informe es va fer fa 2 hores i 35 minuts, a les 09:27 UTC
Pronòstic vàlid del 17 a les 12 UTC al 18 a les 12 UTC
Vent 8 kt del Nord
Visibilitat: 6000 m
Núvols disperses a una alçada de 2000 ft

TAF: ZSPD 170927Z 1712/1812 01004MPS 6000 SCT020 TX21/1806Z TN15/1721Z

Observacions i pronòstics meteorològics de més de 4000 aeroports (METAR i TAF).

Les estacions disponibles són els punts grocs i vermells al mapa.

Posi el ratolí al punt desitjat per veure el nom de l'estació.

Feu clic per veure les observacions i els pronòstics meteorològics.

Per canviar el mapa: feu clic els botons verds amb una creu de color negre per apropar; al botó verd amb un guió per allunyar la imatge; o en les fletxes verdes per a mapes adjacents.


METAR-TAF: